createdAt,value
2022-10-28T00:00:33.092Z,11.89
2022-10-28T00:01:33.161Z,11.93
2022-10-28T00:02:33.231Z,11.99
2022-10-28T00:03:33.127Z,12.06
2022-10-28T00:04:33.074Z,12.11
2022-10-28T00:05:33.034Z,12.15
2022-10-28T00:06:33.110Z,12.18
2022-10-28T00:07:33.015Z,12.19
2022-10-28T00:08:33.004Z,12.19
2022-10-28T00:09:33.059Z,12.17
2022-10-28T00:10:32.989Z,12.15
2022-10-28T00:11:33.022Z,12.14
2022-10-28T00:12:32.972Z,12.15
2022-10-28T00:13:32.951Z,12.18
2022-10-28T00:14:33.066Z,12.19
2022-10-28T00:15:32.933Z,12.20
2022-10-28T00:16:33.004Z,12.20
2022-10-28T00:17:32.922Z,12.20
2022-10-28T00:18:32.916Z,12.22
2022-10-28T00:19:32.935Z,12.22
2022-10-28T00:20:32.893Z,12.22
2022-10-28T00:21:32.877Z,12.21
2022-10-28T00:22:32.856Z,12.20
2022-10-28T00:23:32.888Z,12.18
2022-10-28T00:24:32.842Z,12.15
2022-10-28T00:25:32.881Z,12.10
2022-10-28T00:26:32.873Z,12.06
2022-10-28T00:27:32.814Z,12.02
2022-10-28T00:28:32.876Z,11.98
2022-10-28T00:29:32.796Z,11.94
2022-10-28T00:30:32.803Z,11.92
2022-10-28T00:31:32.838Z,11.91
2022-10-28T00:32:32.762Z,11.91
2022-10-28T00:33:32.786Z,11.92
2022-10-28T00:34:32.754Z,11.95
2022-10-28T00:35:32.728Z,11.99
2022-10-28T00:36:32.725Z,12.02
2022-10-28T00:37:32.758Z,12.04
2022-10-28T00:38:32.721Z,12.05
2022-10-28T00:39:32.770Z,12.07
2022-10-28T00:40:32.693Z,12.09
2022-10-28T00:41:32.673Z,12.10
2022-10-28T00:42:32.779Z,12.12
2022-10-28T00:43:32.669Z,12.16
2022-10-28T00:44:32.639Z,12.20
2022-10-28T00:45:32.695Z,12.24
2022-10-28T00:46:32.636Z,12.26
2022-10-28T00:47:32.613Z,12.27
2022-10-28T00:48:32.608Z,12.27
2022-10-28T00:49:32.604Z,12.26
2022-10-28T00:50:32.641Z,12.26
2022-10-28T00:51:32.566Z,12.25
2022-10-28T00:52:32.613Z,12.24
2022-10-28T00:53:32.610Z,12.22
2022-10-28T00:54:32.586Z,12.21
2022-10-28T00:55:32.547Z,12.19
2022-10-28T00:56:32.523Z,12.18
2022-10-28T00:57:32.504Z,12.18
2022-10-28T00:58:32.561Z,12.20
2022-10-28T00:59:32.489Z,12.22
2022-10-28T01:00:32.486Z,12.23
2022-10-28T01:01:32.566Z,12.24
2022-10-28T01:02:32.532Z,12.26
2022-10-28T01:03:32.510Z,12.27
2022-10-28T01:04:32.470Z,12.28
2022-10-28T01:05:32.452Z,12.30
2022-10-28T01:06:32.437Z,12.34
2022-10-28T01:07:32.469Z,12.38
2022-10-28T01:08:32.403Z,12.40
2022-10-28T01:09:32.397Z,12.40
2022-10-28T01:10:32.442Z,12.37
2022-10-28T01:11:32.373Z,12.32
2022-10-28T01:12:32.362Z,12.25
2022-10-28T01:13:32.369Z,12.18
2022-10-28T01:14:32.340Z,12.12
2022-10-28T01:15:32.344Z,12.06
2022-10-28T01:16:32.361Z,12.00
2022-10-28T01:17:32.320Z,11.95
2022-10-28T01:18:32.382Z,11.90
2022-10-28T01:19:32.353Z,11.85
2022-10-28T01:20:36.102Z,11.81
2022-10-28T01:21:32.273Z,11.77
2022-10-28T01:22:32.368Z,11.73
2022-10-28T01:23:32.261Z,11.71
2022-10-28T01:24:32.234Z,11.69
2022-10-28T01:25:32.290Z,11.70
2022-10-28T01:26:32.214Z,11.73
2022-10-28T01:27:32.210Z,11.75
2022-10-28T01:28:32.209Z,11.77
2022-10-28T01:29:32.279Z,11.78
2022-10-28T01:30:32.232Z,11.79
2022-10-28T01:31:32.236Z,11.80
2022-10-28T01:32:32.164Z,11.80
2022-10-28T01:33:32.155Z,11.79
2022-10-28T01:34:32.153Z,11.79
2022-10-28T01:35:32.151Z,11.77
2022-10-28T01:36:32.195Z,11.75
2022-10-28T01:37:32.103Z,11.73
2022-10-28T01:38:32.144Z,11.71
2022-10-28T01:39:32.109Z,11.70
2022-10-28T01:40:32.213Z,11.69
2022-10-28T01:41:32.063Z,11.69
2022-10-28T01:42:32.116Z,11.69
2022-10-28T01:43:32.056Z,11.69
2022-10-28T01:44:32.113Z,11.68
2022-10-28T01:45:32.047Z,11.68
2022-10-28T01:46:32.021Z,11.69
2022-10-28T01:47:32.009Z,11.69
2022-10-28T01:48:32.084Z,11.69
2022-10-28T01:49:32.031Z,11.68
2022-10-28T01:50:31.975Z,11.68
2022-10-28T01:51:31.961Z,11.67
2022-10-28T01:52:31.960Z,11.68
2022-10-28T01:53:31.939Z,11.68
2022-10-28T01:54:31.978Z,11.68
2022-10-28T01:55:31.917Z,11.68
2022-10-28T01:56:31.960Z,11.68
2022-10-28T01:57:31.977Z,11.70
2022-10-28T01:58:31.940Z,11.74
2022-10-28T01:59:31.935Z,11.79
2022-10-28T02:00:31.915Z,11.84
2022-10-28T02:01:32.028Z,11.90
2022-10-28T02:02:31.878Z,11.96
2022-10-28T02:03:31.837Z,12.01
2022-10-28T02:04:31.895Z,12.04
2022-10-28T02:05:31.836Z,12.06
2022-10-28T02:06:31.916Z,12.06
2022-10-28T02:07:31.837Z,12.07
2022-10-28T02:08:31.797Z,12.08
2022-10-28T02:09:31.797Z,12.08
2022-10-28T02:10:31.860Z,12.06
2022-10-28T02:11:31.844Z,12.04
2022-10-28T02:12:31.750Z,12.02
2022-10-28T02:13:31.846Z,11.98
2022-10-28T02:14:31.786Z,11.93
2022-10-28T02:15:31.721Z,11.90
2022-10-28T02:16:31.720Z,11.85
2022-10-28T02:17:31.703Z,11.80
2022-10-28T02:18:31.708Z,11.75
2022-10-28T02:19:31.724Z,11.71
2022-10-28T02:20:31.698Z,11.67
2022-10-28T02:21:31.666Z,11.63
2022-10-28T02:22:31.669Z,11.59
2022-10-28T02:23:31.711Z,11.54
2022-10-28T02:24:31.631Z,11.51
2022-10-28T02:25:31.622Z,11.50
2022-10-28T02:26:31.614Z,11.49
2022-10-28T02:27:31.604Z,11.49
2022-10-28T02:28:31.638Z,11.49
2022-10-28T02:29:31.617Z,11.49
2022-10-28T02:30:31.589Z,11.50
2022-10-28T02:31:31.628Z,11.53
2022-10-28T02:32:31.558Z,11.57
2022-10-28T02:33:31.547Z,11.60
2022-10-28T02:34:31.604Z,11.63
2022-10-28T02:35:31.539Z,11.63
2022-10-28T02:36:31.657Z,11.60
2022-10-28T02:37:31.537Z,11.56
2022-10-28T02:38:31.496Z,11.52
2022-10-28T02:39:31.516Z,11.47
2022-10-28T02:40:31.481Z,11.41
2022-10-28T02:41:31.533Z,11.34
2022-10-28T02:42:31.466Z,11.25
2022-10-28T02:43:31.436Z,11.16
2022-10-28T02:44:31.439Z,11.05
2022-10-28T02:45:31.500Z,10.96
2022-10-28T02:46:31.417Z,10.87
2022-10-28T02:47:31.398Z,10.80
2022-10-28T02:48:31.431Z,10.74
2022-10-28T02:49:31.446Z,10.69
2022-10-28T02:50:31.405Z,10.66
2022-10-28T02:51:31.409Z,10.65
2022-10-28T02:52:31.394Z,10.65
2022-10-28T02:53:31.434Z,10.65
2022-10-28T02:54:31.401Z,10.66
2022-10-28T02:55:31.331Z,10.68
2022-10-28T02:56:31.317Z,10.72
2022-10-28T02:57:31.322Z,10.76
2022-10-28T02:58:31.363Z,10.79
2022-10-28T02:59:31.325Z,10.83
2022-10-28T03:00:31.303Z,10.88
2022-10-28T03:01:31.378Z,10.92
2022-10-28T03:02:31.258Z,10.97
2022-10-28T03:03:31.283Z,11.00
2022-10-28T03:04:31.239Z,11.03
2022-10-28T03:05:31.225Z,11.06
2022-10-28T03:06:31.217Z,11.09
2022-10-28T03:07:31.228Z,11.12
2022-10-28T03:08:31.191Z,11.14
2022-10-28T03:09:31.223Z,11.14
2022-10-28T03:10:31.221Z,11.15
2022-10-28T03:11:31.210Z,11.16
2022-10-28T03:12:31.156Z,11.18
2022-10-28T03:13:31.185Z,11.19
2022-10-28T03:14:31.268Z,11.20
2022-10-28T03:15:31.126Z,11.20
2022-10-28T03:16:31.123Z,11.20
2022-10-28T03:17:31.134Z,11.19
2022-10-28T03:18:31.093Z,11.19
2022-10-28T03:19:31.128Z,11.18
2022-10-28T03:20:31.090Z,11.16
2022-10-28T03:21:31.080Z,11.15
2022-10-28T03:22:31.067Z,11.14
2022-10-28T03:23:31.112Z,11.12
2022-10-28T03:24:31.043Z,11.09
2022-10-28T03:25:31.038Z,11.06
2022-10-28T03:26:31.236Z,11.02
2022-10-28T03:27:31.002Z,10.99
2022-10-28T03:28:30.993Z,10.95
2022-10-28T03:29:31.066Z,10.91
2022-10-28T03:30:31.001Z,10.87
2022-10-28T03:31:30.962Z,10.85
2022-10-28T03:32:30.955Z,10.82
2022-10-28T03:33:30.991Z,10.81
2022-10-28T03:34:30.950Z,10.80
2022-10-28T03:35:31.004Z,10.77
2022-10-28T03:36:30.969Z,10.74
2022-10-28T03:37:30.927Z,10.72
2022-10-28T03:38:30.908Z,10.70
2022-10-28T03:39:30.880Z,10.68
2022-10-28T03:40:30.879Z,10.66
2022-10-28T03:41:30.863Z,10.64
2022-10-28T03:42:30.907Z,10.61
2022-10-28T03:43:30.844Z,10.59
2022-10-28T03:44:30.861Z,10.56
2022-10-28T03:45:30.826Z,10.53
2022-10-28T03:46:33.595Z,10.51
2022-10-28T03:47:30.875Z,10.48
2022-10-28T03:48:30.797Z,10.46
2022-10-28T03:49:30.789Z,10.45
2022-10-28T03:50:30.791Z,10.44
2022-10-28T03:51:30.768Z,10.43
2022-10-28T03:52:30.812Z,10.43
2022-10-28T03:53:31.541Z,10.44
2022-10-28T03:54:30.737Z,10.45
2022-10-28T03:55:30.764Z,10.46
2022-10-28T03:56:30.728Z,10.47
2022-10-28T03:57:30.766Z,10.48
2022-10-28T03:58:30.737Z,10.50
2022-10-28T03:59:30.692Z,10.50
2022-10-28T04:00:30.681Z,10.51
2022-10-28T04:01:30.777Z,10.51
2022-10-28T04:02:30.769Z,10.50
2022-10-28T04:03:30.694Z,10.48
2022-10-28T04:04:30.871Z,10.47
2022-10-28T04:05:30.666Z,10.46
2022-10-28T04:06:30.635Z,10.45
2022-10-28T04:07:30.609Z,10.45
2022-10-28T04:08:30.672Z,10.45
2022-10-28T04:09:30.631Z,10.44
2022-10-28T04:10:30.581Z,10.44
2022-10-28T04:11:30.642Z,10.43
2022-10-28T04:12:30.594Z,10.43
2022-10-28T04:13:30.543Z,10.44
2022-10-28T04:14:30.573Z,10.45
2022-10-28T04:15:30.531Z,10.48
2022-10-28T04:16:30.529Z,10.52
2022-10-28T04:17:30.549Z,10.57
2022-10-28T04:18:30.547Z,10.61
2022-10-28T04:19:30.514Z,10.65
2022-10-28T04:20:30.487Z,10.68
2022-10-28T04:21:30.531Z,10.72
2022-10-28T04:22:30.480Z,10.77
2022-10-28T04:23:30.509Z,10.82
2022-10-28T04:24:30.444Z,10.86
2022-10-28T04:25:30.426Z,10.89
2022-10-28T04:26:30.465Z,10.90
2022-10-28T04:27:30.401Z,10.91
2022-10-28T04:28:30.422Z,10.91
2022-10-28T04:29:30.426Z,10.91
2022-10-28T04:30:30.371Z,10.90
2022-10-28T04:31:30.374Z,10.88
2022-10-28T04:32:30.380Z,10.85
2022-10-28T04:33:30.342Z,10.83
2022-10-28T04:34:30.361Z,10.81
2022-10-28T04:35:30.363Z,10.78
2022-10-28T04:36:30.320Z,10.75
2022-10-28T04:37:30.319Z,10.71
2022-10-28T04:38:30.314Z,10.66
2022-10-28T04:39:30.332Z,10.60
2022-10-28T04:40:30.277Z,10.55
2022-10-28T04:41:30.301Z,10.50
2022-10-28T04:42:30.257Z,10.45
2022-10-28T04:43:30.240Z,10.42
2022-10-28T04:44:30.272Z,10.39
2022-10-28T04:45:30.304Z,10.36
2022-10-28T04:46:30.262Z,10.34
2022-10-28T04:47:30.222Z,10.32
2022-10-28T04:48:30.193Z,10.29
2022-10-28T04:49:30.191Z,10.27
2022-10-28T04:50:30.207Z,10.26
2022-10-28T04:51:30.205Z,10.25
2022-10-28T04:52:30.265Z,10.24
2022-10-28T04:53:30.218Z,10.23
2022-10-28T04:54:30.135Z,10.23
2022-10-28T04:55:30.139Z,10.25
2022-10-28T04:56:30.164Z,10.29
2022-10-28T04:57:30.125Z,10.36
2022-10-28T04:58:30.111Z,10.45
2022-10-28T04:59:30.127Z,10.55
2022-10-28T05:00:30.073Z,10.64
2022-10-28T05:01:30.167Z,10.71
2022-10-28T05:02:30.178Z,10.77
2022-10-28T05:03:30.077Z,10.81
2022-10-28T05:04:30.095Z,10.85
2022-10-28T05:05:30.039Z,10.89
2022-10-28T05:06:30.042Z,10.91
2022-10-28T05:07:30.080Z,10.92
2022-10-28T05:08:30.007Z,10.91
2022-10-28T05:09:29.987Z,10.88
2022-10-28T05:10:30.084Z,10.84
2022-10-28T05:11:29.997Z,10.78
2022-10-28T05:12:30.043Z,10.70
2022-10-28T05:13:30.006Z,10.63
2022-10-28T05:14:29.962Z,10.55
2022-10-28T05:15:29.974Z,10.48
2022-10-28T05:16:29.942Z,10.42
2022-10-28T05:17:29.909Z,10.38
2022-10-28T05:18:29.948Z,10.34
2022-10-28T05:19:29.890Z,10.32
2022-10-28T05:20:29.881Z,10.29
2022-10-28T05:21:29.844Z,10.24
2022-10-28T05:22:29.866Z,10.17
2022-10-28T05:23:30.851Z,10.09
2022-10-28T05:24:29.833Z,10.02
2022-10-28T05:25:29.835Z,9.95
2022-10-28T05:26:29.866Z,9.90
2022-10-28T05:27:29.807Z,9.87
2022-10-28T05:28:29.797Z,9.85
2022-10-28T05:29:33.132Z,9.85
2022-10-28T05:30:29.766Z,9.85
2022-10-28T05:31:29.717Z,9.86
2022-10-28T05:32:29.728Z,9.90
2022-10-28T05:33:29.793Z,9.93
2022-10-28T05:34:29.680Z,9.95
2022-10-28T05:35:29.678Z,9.96
2022-10-28T05:36:29.678Z,9.96
2022-10-28T05:37:29.683Z,9.95
2022-10-28T05:38:29.644Z,9.94
2022-10-28T05:39:29.698Z,9.93
2022-10-28T05:40:29.691Z,9.92
2022-10-28T05:41:29.659Z,9.90
2022-10-28T05:42:29.615Z,9.89
2022-10-28T05:43:29.612Z,9.88
2022-10-28T05:44:29.577Z,9.86
2022-10-28T05:46:29.631Z,9.80
2022-10-28T05:47:29.553Z,9.78
2022-10-28T05:48:29.545Z,9.76
2022-10-28T05:49:29.539Z,9.75
2022-10-28T05:50:29.520Z,9.74
2022-10-28T05:51:29.591Z,9.74
2022-10-28T05:52:29.507Z,9.73
2022-10-28T05:53:29.494Z,9.73
2022-10-28T05:54:29.546Z,9.73
2022-10-28T05:55:29.521Z,9.73
2022-10-28T05:56:29.467Z,9.73
2022-10-28T05:57:29.525Z,9.74
2022-10-28T05:58:29.465Z,9.77
2022-10-28T05:59:29.466Z,9.80
2022-10-28T06:00:29.439Z,9.84
2022-10-28T06:01:29.523Z,9.87
2022-10-28T06:02:29.581Z,9.90
2022-10-28T06:03:31.248Z,9.93
2022-10-28T06:04:29.388Z,9.96
2022-10-28T06:05:29.378Z,9.97
2022-10-28T06:06:29.362Z,9.99
2022-10-28T06:07:29.357Z,10.00
2022-10-28T06:08:29.405Z,10.02
2022-10-28T06:09:29.342Z,10.04
2022-10-28T06:10:29.404Z,10.06
2022-10-28T06:11:27.778Z,10.08
2022-10-28T06:12:27.809Z,10.10
2022-10-28T06:13:27.785Z,10.12
2022-10-28T06:14:27.801Z,10.13
2022-10-28T06:15:27.795Z,10.15
2022-10-28T06:16:27.790Z,10.17
2022-10-28T06:17:27.848Z,10.18
2022-10-28T06:18:27.732Z,10.20
2022-10-28T06:19:27.751Z,10.21
2022-10-28T06:20:27.746Z,10.22
2022-10-28T06:21:27.730Z,10.23
2022-10-28T06:22:27.761Z,10.24
2022-10-28T06:23:27.716Z,10.25
2022-10-28T06:24:27.681Z,10.27
2022-10-28T06:25:27.664Z,10.28
2022-10-28T06:26:27.653Z,10.28
2022-10-28T06:27:27.671Z,10.27
2022-10-28T06:28:27.681Z,10.26
2022-10-28T06:29:27.635Z,10.23
2022-10-28T06:30:27.671Z,10.21
2022-10-28T06:31:27.632Z,10.19
2022-10-28T06:32:27.595Z,10.17
2022-10-28T06:33:27.649Z,10.16
2022-10-28T06:34:27.618Z,10.14
2022-10-28T06:35:27.565Z,10.12
2022-10-28T06:36:27.554Z,10.11
2022-10-28T06:37:27.551Z,10.11
2022-10-28T06:38:27.583Z,10.12
2022-10-28T06:39:27.599Z,10.14
2022-10-28T06:40:27.546Z,10.17
2022-10-28T06:41:27.504Z,10.20
2022-10-28T06:42:27.508Z,10.25
2022-10-28T06:43:27.513Z,10.32
2022-10-28T06:44:27.499Z,10.38
2022-10-28T06:45:27.526Z,10.44
2022-10-28T06:46:27.457Z,10.51
2022-10-28T06:47:29.006Z,10.59
2022-10-28T06:48:28.962Z,10.66
2022-10-28T06:49:28.998Z,10.72
2022-10-28T06:50:28.991Z,10.77
2022-10-28T06:51:28.948Z,10.83
2022-10-28T06:52:28.996Z,10.90
2022-10-28T06:53:28.934Z,10.95
2022-10-28T06:54:28.913Z,11.00
2022-10-28T06:55:28.916Z,11.03
2022-10-28T06:56:28.919Z,11.06
2022-10-28T06:57:29.382Z,11.08
2022-10-28T06:58:28.869Z,11.10
2022-10-28T06:59:28.862Z,11.11
2022-10-28T07:00:28.974Z,11.12
2022-10-28T07:01:29.082Z,11.14
2022-10-28T07:02:28.949Z,11.15
2022-10-28T07:03:28.876Z,11.15
2022-10-28T07:04:28.885Z,11.15
2022-10-28T07:05:28.810Z,11.13
2022-10-28T07:06:28.799Z,11.11
2022-10-28T07:07:28.803Z,11.09
2022-10-28T07:08:28.788Z,11.06
2022-10-28T07:09:28.820Z,11.05
2022-10-28T07:10:28.749Z,11.05
2022-10-28T07:11:28.748Z,11.06
2022-10-28T07:12:28.735Z,11.09
2022-10-28T07:13:28.750Z,11.13
2022-10-28T07:14:28.775Z,11.18
2022-10-28T07:15:28.711Z,11.23
2022-10-28T07:16:28.695Z,11.27
2022-10-28T07:17:28.710Z,11.30
2022-10-28T07:18:28.731Z,11.33
2022-10-28T07:19:28.672Z,11.35
2022-10-28T07:20:28.672Z,11.37
2022-10-28T07:21:28.664Z,11.39
2022-10-28T07:22:28.686Z,11.40
2022-10-28T07:23:28.633Z,11.43
2022-10-28T07:24:28.675Z,11.46
2022-10-28T07:25:28.615Z,11.48
2022-10-28T07:26:28.665Z,11.49
2022-10-28T07:27:28.622Z,11.49
2022-10-28T07:28:28.597Z,11.48
2022-10-28T07:29:28.617Z,11.47
2022-10-28T07:30:28.576Z,11.47
2022-10-28T07:31:28.578Z,11.48
2022-10-28T07:32:28.626Z,11.49
2022-10-28T07:33:28.575Z,11.53
2022-10-28T07:34:28.539Z,11.59
2022-10-28T07:35:28.519Z,11.65
2022-10-28T07:36:28.545Z,11.71
2022-10-28T07:37:28.499Z,11.79
2022-10-28T07:38:28.530Z,11.87
2022-10-28T07:39:28.539Z,11.96
2022-10-28T07:40:28.484Z,12.03
2022-10-28T07:41:28.456Z,12.08
2022-10-28T07:42:28.461Z,12.12
2022-10-28T07:43:28.524Z,12.14
2022-10-28T07:44:28.493Z,12.15
2022-10-28T07:45:28.416Z,12.14
2022-10-28T07:46:28.405Z,12.12
2022-10-28T07:47:28.419Z,12.08
2022-10-28T07:48:28.398Z,12.00
2022-10-28T07:49:28.423Z,11.92
2022-10-28T07:50:28.475Z,11.84
2022-10-28T07:51:28.422Z,11.77
2022-10-28T07:52:28.413Z,11.72
2022-10-28T07:53:28.964Z,11.67
2022-10-28T07:54:28.323Z,11.62
2022-10-28T07:55:28.350Z,11.57
2022-10-28T07:56:28.408Z,11.52
2022-10-28T07:57:28.342Z,11.47
2022-10-28T07:58:28.334Z,11.44
2022-10-28T07:59:28.282Z,11.43
2022-10-28T08:00:28.328Z,11.43
2022-10-28T08:01:28.394Z,11.43
2022-10-28T08:02:28.233Z,11.44
2022-10-28T08:03:34.670Z,11.44
2022-10-28T08:04:28.257Z,11.44
2022-10-28T08:05:28.220Z,11.43
2022-10-28T08:06:28.272Z,11.43
2022-10-28T08:07:28.204Z,11.43
2022-10-28T08:08:28.192Z,11.43
2022-10-28T08:09:28.217Z,11.44
2022-10-28T08:10:28.138Z,11.46
2022-10-28T08:11:28.193Z,11.47
2022-10-28T08:12:28.169Z,11.48
2022-10-28T08:13:28.187Z,11.50
2022-10-28T08:14:28.087Z,11.52
2022-10-28T08:15:28.087Z,11.55
2022-10-28T08:16:28.113Z,11.58
2022-10-28T08:17:28.113Z,11.63
2022-10-28T08:18:28.057Z,11.67
2022-10-28T08:19:28.058Z,11.71
2022-10-28T08:20:28.086Z,11.74
2022-10-28T08:21:28.069Z,11.75
2022-10-28T08:22:28.039Z,11.74
2022-10-28T08:23:28.007Z,11.74
2022-10-28T08:24:28.002Z,11.73
2022-10-28T08:25:27.969Z,11.73
2022-10-28T08:26:27.959Z,11.72
2022-10-28T08:27:28.006Z,11.71
2022-10-28T08:28:28.039Z,11.69
2022-10-28T08:29:30.168Z,11.65
2022-10-28T08:30:29.030Z,11.61
2022-10-28T08:31:27.952Z,11.59
2022-10-28T08:32:27.934Z,11.56
2022-10-28T08:33:27.961Z,11.53
2022-10-28T08:34:27.883Z,11.50
2022-10-28T08:35:27.885Z,11.46
2022-10-28T08:36:27.869Z,11.40
2022-10-28T08:37:27.932Z,11.36
2022-10-28T08:38:27.900Z,11.34
2022-10-28T08:39:27.840Z,11.34
2022-10-28T08:40:27.818Z,11.36
2022-10-28T08:41:27.810Z,11.38
2022-10-28T08:42:27.839Z,11.41
2022-10-28T08:43:45.975Z,11.45
2022-10-28T08:44:27.880Z,11.47
2022-10-28T08:45:27.834Z,11.49
2022-10-28T08:46:27.780Z,11.50
2022-10-28T08:47:27.759Z,11.51
2022-10-28T08:48:27.748Z,11.53
2022-10-28T08:49:27.754Z,11.56
2022-10-28T08:50:27.774Z,11.60
2022-10-28T08:51:27.726Z,11.65
2022-10-28T08:52:27.747Z,11.70
2022-10-28T08:53:27.797Z,11.73
2022-10-28T08:54:27.762Z,11.77
2022-10-28T08:55:27.691Z,11.80
2022-10-28T08:56:27.666Z,11.82
2022-10-28T08:57:27.784Z,11.82
2022-10-28T08:58:27.664Z,11.83
2022-10-28T08:59:27.633Z,11.83
2022-10-28T09:00:27.634Z,11.84
2022-10-28T09:01:27.910Z,11.86
2022-10-28T09:02:27.649Z,11.88
2022-10-28T09:03:27.613Z,11.90
2022-10-28T09:04:27.667Z,11.93
2022-10-28T09:05:27.669Z,11.98
2022-10-28T09:06:27.626Z,12.03
2022-10-28T09:07:27.589Z,12.08
2022-10-28T09:08:27.583Z,12.13
2022-10-28T09:09:27.564Z,12.20
2022-10-28T09:10:27.547Z,12.27
2022-10-28T09:11:27.615Z,12.36
2022-10-28T09:12:27.532Z,12.44
2022-10-28T09:13:27.523Z,12.53
2022-10-28T09:14:27.524Z,12.61
2022-10-28T09:15:27.519Z,12.68
2022-10-28T09:16:27.540Z,12.73
2022-10-28T09:17:27.520Z,12.78
2022-10-28T09:18:27.457Z,12.81
2022-10-28T09:19:27.463Z,12.84
2022-10-28T09:20:27.459Z,12.88
2022-10-28T09:21:27.465Z,12.93
2022-10-28T09:22:27.505Z,12.97
2022-10-28T09:23:27.551Z,13.01
2022-10-28T09:24:27.382Z,13.05
2022-10-28T09:25:27.421Z,13.11
2022-10-28T09:26:27.472Z,13.13
2022-10-28T09:27:27.443Z,13.15
2022-10-28T09:28:27.367Z,13.18
2022-10-28T09:29:27.368Z,13.22
2022-10-28T09:30:27.385Z,13.27
2022-10-28T09:31:27.800Z,13.33
2022-10-28T09:32:27.413Z,13.39
2022-10-28T09:33:27.457Z,13.45
2022-10-28T09:34:27.365Z,13.50
2022-10-28T09:35:27.449Z,13.54
2022-10-28T09:36:27.420Z,13.55
2022-10-28T09:37:27.378Z,13.56
2022-10-28T09:38:27.310Z,13.56
2022-10-28T09:39:27.999Z,13.56
2022-10-28T09:40:27.310Z,13.56
2022-10-28T09:41:27.272Z,13.55
2022-10-28T09:42:27.511Z,13.56
2022-10-28T09:43:27.228Z,13.56
2022-10-28T09:44:27.254Z,13.56
2022-10-28T09:45:27.298Z,13.58
2022-10-28T09:46:27.272Z,13.61
2022-10-28T09:47:27.224Z,13.62
2022-10-28T09:48:27.266Z,13.63
2022-10-28T09:49:27.192Z,13.65
2022-10-28T09:50:27.215Z,13.68
2022-10-28T09:51:27.367Z,13.71
2022-10-28T09:52:27.441Z,13.75
2022-10-28T09:53:27.209Z,13.82
2022-10-28T09:54:27.112Z,13.88
2022-10-28T09:55:27.171Z,13.93
2022-10-28T09:56:27.104Z,13.99
2022-10-28T09:57:27.098Z,14.04
2022-10-28T09:58:27.213Z,14.09
2022-10-28T09:59:27.052Z,14.15
2022-10-28T10:00:27.024Z,14.19
2022-10-28T10:01:27.182Z,14.24
2022-10-28T10:02:27.104Z,14.29
2022-10-28T10:03:27.009Z,14.35
2022-10-28T10:04:27.008Z,14.39
2022-10-28T10:05:26.983Z,14.41
2022-10-28T10:06:27.042Z,14.42
2022-10-28T10:07:26.975Z,14.44
2022-10-28T10:08:27.031Z,14.46
2022-10-28T10:09:27.901Z,14.47
2022-10-28T10:10:26.940Z,14.47
2022-10-28T10:11:27.251Z,14.49
2022-10-28T10:12:26.897Z,14.51
2022-10-28T10:13:26.959Z,14.51
2022-10-28T10:14:26.903Z,14.52
2022-10-28T10:15:26.921Z,14.54
2022-10-28T10:16:26.874Z,14.56
2022-10-28T10:17:26.878Z,14.59
2022-10-28T10:18:26.919Z,14.63
2022-10-28T10:19:26.891Z,14.67
2022-10-28T10:20:26.842Z,14.69
2022-10-28T10:21:26.819Z,14.71
2022-10-28T10:22:26.817Z,14.75
2022-10-28T10:23:26.867Z,14.82
2022-10-28T10:24:26.832Z,14.90
2022-10-28T10:25:27.016Z,14.95
2022-10-28T10:26:26.783Z,15.00
2022-10-28T10:27:26.830Z,15.06
2022-10-28T10:28:26.768Z,15.13
2022-10-28T10:29:26.742Z,15.20
2022-10-28T10:30:26.730Z,15.29
2022-10-28T10:31:26.713Z,15.38
2022-10-28T10:32:26.757Z,15.49
2022-10-28T10:33:26.703Z,15.66
2022-10-28T10:34:26.685Z,15.82
2022-10-28T10:35:26.678Z,15.93
2022-10-28T10:36:26.704Z,16.03
2022-10-28T10:37:26.727Z,16.10
2022-10-28T10:38:26.646Z,16.10
2022-10-28T10:39:26.661Z,16.08
2022-10-28T10:40:26.637Z,16.11
2022-10-28T10:41:26.727Z,16.12
2022-10-28T10:42:26.603Z,16.12
2022-10-28T10:43:26.642Z,16.09
2022-10-28T10:44:26.615Z,16.05
2022-10-28T10:45:26.596Z,16.02
2022-10-28T10:46:26.624Z,16.10
2022-10-28T10:47:26.622Z,16.31
2022-10-28T10:48:26.565Z,16.50
2022-10-28T10:49:26.570Z,16.59
2022-10-28T10:50:26.606Z,16.62
2022-10-28T10:51:26.551Z,16.61
2022-10-28T10:52:26.536Z,16.54
2022-10-28T10:53:26.562Z,16.47
2022-10-28T10:54:26.501Z,16.45
2022-10-28T10:55:26.558Z,16.51
2022-10-28T10:56:26.485Z,16.60
2022-10-28T10:57:26.495Z,16.71
2022-10-28T10:58:26.554Z,16.77
2022-10-28T10:59:26.478Z,16.84
2022-10-28T11:00:26.620Z,16.94
2022-10-28T11:01:26.565Z,17.06
2022-10-28T11:02:26.633Z,17.18
2022-10-28T11:03:26.465Z,17.28
2022-10-28T11:04:26.447Z,17.39
2022-10-28T11:05:29.266Z,17.52
2022-10-28T11:06:26.449Z,17.66
2022-10-28T11:07:26.373Z,17.77
2022-10-28T11:08:26.357Z,17.75
2022-10-28T11:09:26.384Z,17.70
2022-10-28T11:10:26.552Z,17.74
2022-10-28T11:11:26.395Z,17.82
2022-10-28T11:12:27.087Z,17.89
2022-10-28T11:13:26.323Z,17.96
2022-10-28T11:14:26.351Z,18.02
2022-10-28T11:15:26.319Z,18.10
2022-10-28T11:16:26.294Z,18.26
2022-10-28T11:17:26.429Z,18.48
2022-10-28T11:18:26.283Z,18.78
2022-10-28T11:19:26.253Z,19.12
2022-10-28T11:20:26.285Z,19.41
2022-10-28T11:21:26.260Z,19.59
2022-10-28T11:22:26.228Z,19.65
2022-10-28T11:23:26.243Z,19.62
2022-10-28T11:24:26.212Z,19.64
2022-10-28T11:25:26.249Z,19.69
2022-10-28T11:26:26.294Z,19.71
2022-10-28T11:27:26.257Z,19.71
2022-10-28T11:28:26.273Z,19.74
2022-10-28T11:29:26.219Z,19.79
2022-10-28T11:30:26.152Z,19.81
2022-10-28T11:31:26.183Z,19.83
2022-10-28T11:32:26.135Z,19.88
2022-10-28T11:33:30.643Z,19.98
2022-10-28T11:34:26.107Z,20.12
2022-10-28T11:35:26.215Z,20.18
2022-10-28T11:36:26.151Z,20.23
2022-10-28T11:37:26.153Z,20.34
2022-10-28T11:38:26.079Z,20.49
2022-10-28T11:39:26.055Z,20.67
2022-10-28T11:40:26.054Z,20.83
2022-10-28T11:41:26.024Z,20.90
2022-10-28T11:42:26.088Z,20.86
2022-10-28T11:43:25.995Z,20.79
2022-10-28T11:44:26.052Z,20.72
2022-10-28T11:45:25.996Z,20.69
2022-10-28T11:46:26.069Z,20.74
2022-10-28T11:47:25.977Z,20.83
2022-10-28T11:48:26.073Z,20.87
2022-10-28T11:49:26.230Z,20.90
2022-10-28T11:50:25.942Z,20.92
2022-10-28T11:51:25.972Z,20.92
2022-10-28T11:52:25.918Z,20.96
2022-10-28T11:53:25.919Z,21.03
2022-10-28T11:54:25.893Z,21.08
2022-10-28T11:55:25.921Z,21.13
2022-10-28T11:56:25.904Z,21.17
2022-10-28T11:57:25.884Z,21.26
2022-10-28T11:58:25.917Z,21.36
2022-10-28T11:59:25.855Z,21.41
2022-10-28T12:00:25.980Z,21.44
2022-10-28T12:01:25.948Z,21.49
2022-10-28T12:02:25.953Z,21.52
2022-10-28T12:03:25.923Z,21.50
2022-10-28T12:04:25.803Z,21.49
2022-10-28T12:05:25.839Z,21.56
2022-10-28T12:06:25.922Z,21.64
2022-10-28T12:07:25.758Z,21.64
2022-10-28T12:08:25.825Z,21.55
2022-10-28T12:09:25.747Z,21.37
2022-10-28T12:10:25.856Z,21.12
2022-10-28T12:11:25.896Z,20.88
2022-10-28T12:12:25.806Z,20.74
2022-10-28T12:13:25.803Z,20.71
2022-10-28T12:14:25.819Z,20.74
2022-10-28T12:15:25.819Z,20.78
2022-10-28T12:16:25.731Z,20.83
2022-10-28T12:17:25.723Z,20.88
2022-10-28T12:18:25.877Z,20.97
2022-10-28T12:19:25.699Z,21.13
2022-10-28T12:20:25.797Z,21.33
2022-10-28T12:21:25.940Z,21.54
2022-10-28T12:22:25.693Z,21.74
2022-10-28T12:23:25.738Z,21.89
2022-10-28T12:24:25.680Z,21.97
2022-10-28T12:25:25.622Z,21.98
2022-10-28T12:26:25.606Z,21.95
2022-10-28T12:27:25.770Z,21.91
2022-10-28T12:28:25.645Z,21.88
2022-10-28T12:29:25.609Z,21.83
2022-10-28T12:30:25.581Z,21.79
2022-10-28T12:31:25.644Z,21.79
2022-10-28T12:32:25.568Z,21.83
2022-10-28T12:33:25.596Z,21.91
2022-10-28T12:34:25.572Z,21.99
2022-10-28T12:35:25.515Z,22.05
2022-10-28T12:36:25.526Z,22.11
2022-10-28T12:37:25.562Z,22.19
2022-10-28T12:38:25.464Z,22.25
2022-10-28T12:39:25.498Z,22.31
2022-10-28T12:40:25.530Z,22.32
2022-10-28T12:41:25.535Z,22.36
2022-10-28T12:42:25.593Z,22.39
2022-10-28T12:43:25.457Z,22.27
2022-10-28T12:44:25.722Z,21.94
2022-10-28T12:45:25.780Z,21.59
2022-10-28T12:46:25.450Z,21.43
2022-10-28T12:47:25.526Z,21.47
2022-10-28T12:48:25.417Z,21.59
2022-10-28T12:49:25.440Z,21.66
2022-10-28T12:50:25.397Z,21.72
2022-10-28T12:51:25.518Z,21.86
2022-10-28T12:52:25.695Z,22.04
2022-10-28T12:53:32.882Z,22.22
2022-10-28T12:54:26.319Z,22.39
2022-10-28T12:55:25.312Z,22.54